Time;durP1;ratioP1;P1;durP2;ratioP2;P2;SDS_P1;SDS_P2;PMS_P1;PMS_P2;Temp;Humidity;BMP_temperature;BMP_pressure;BME280_temperature;BME280_humidity;BME280_pressure;Samples;Min_cycle;Max_cycle;Signal;HPM_P1;HPM_P2
2024/03/05 00:00:26;;;;;;;66.80;37.63;;;8.10;99.90;;;;;;5102454;28;20249;-78
2024/03/05 00:02:55;;;;;;;72.93;40.00;;;8.00;99.90;;;;;;5103647;28;20236;-78
2024/03/05 00:05:21;;;;;;;76.33;38.70;;;8.10;99.90;;;;;;5101203;28;20193;-78
2024/03/05 00:07:48;;;;;;;74.53;39.43;;;8.00;99.90;;;;;;5101558;28;20300;-78
2024/03/05 00:10:15;;;;;;;82.67;40.17;;;8.10;99.90;;;;;;5102053;28;20214;-78
2024/03/05 00:12:42;;;;;;;69.10;37.53;;;8.10;99.90;;;;;;5101772;28;20672;-78
2024/03/05 00:15:10;;;;;;;81.83;42.00;;;8.00;99.90;;;;;;5109431;28;20197;-79
2024/03/05 00:17:37;;;;;;;81.33;41.97;;;8.00;99.90;;;;;;5107278;28;20201;-78
2024/03/05 00:20:17;;;;;;;82.87;41.67;;;8.10;99.90;;;;;;5106298;28;20312;-79
2024/03/05 00:22:45;;;;;;;85.73;42.80;;;8.00;99.90;;;;;;5110132;28;20266;-79
2024/03/05 00:25:12;;;;;;;87.77;42.93;;;8.00;99.90;;;;;;5108251;28;20236;-79
2024/03/05 00:27:39;;;;;;;81.77;41.70;;;8.00;99.90;;;;;;5109464;28;20245;-79
2024/03/05 00:30:09;;;;;;;81.53;42.03;;;8.00;99.90;;;;;;5110188;28;20231;-79
2024/03/05 00:32:37;;;;;;;78.53;41.33;;;8.00;99.90;;;;;;5110233;28;20193;-78
2024/03/05 00:35:06;;;;;;;81.57;40.03;;;8.00;99.90;;;;;;5110545;28;20201;-79
2024/03/05 00:37:33;;;;;;;85.07;42.50;;;8.00;99.90;;;;;;5111527;28;20240;-78
2024/03/05 00:40:00;;;;;;;81.00;40.27;;;8.00;99.90;;;;;;5110622;28;20259;-79
2024/03/05 00:42:27;;;;;;;79.70;40.73;;;8.00;99.90;;;;;;5107879;28;20690;-79
2024/03/05 00:44:53;;;;;;;84.40;43.20;;;8.00;99.90;;;;;;5113068;28;20241;-79
2024/03/05 00:47:21;;;;;;;87.87;42.73;;;8.00;99.90;;;;;;5110805;28;20261;-79
2024/03/05 00:49:47;;;;;;;92.13;43.07;;;8.00;99.90;;;;;;5111924;28;20300;-79
2024/03/05 00:52:16;;;;;;;91.17;44.67;;;8.00;99.90;;;;;;5116710;27;20273;-79
2024/03/05 00:54:42;;;;;;;105.87;46.17;;;8.00;99.90;;;;;;5108644;28;20206;-79
2024/03/05 00:57:09;;;;;;;94.57;45.60;;;8.10;99.90;;;;;;5108733;28;20571;-79
2024/03/05 00:59:36;;;;;;;87.90;43.70;;;8.10;99.90;;;;;;5102409;28;20255;-79
2024/03/05 01:02:03;;;;;;;89.33;42.83;;;8.10;99.90;;;;;;5104549;28;20231;-79
2024/03/05 01:04:30;;;;;;;86.33;43.83;;;8.10;99.90;;;;;;5107275;28;20201;-79
2024/03/05 01:06:57;;;;;;;92.27;44.80;;;8.10;99.90;;;;;;5101965;28;20216;-79
2024/03/05 01:09:25;;;;;;;92.80;44.50;;;8.10;99.90;;;;;;5102343;28;20213;-79
2024/03/05 01:11:53;;;;;;;86.00;42.47;;;8.10;99.90;;;;;;5101712;28;20265;-79
2024/03/05 01:14:20;;;;;;;85.23;43.27;;;8.10;99.90;;;;;;5102109;28;20197;-79
2024/03/05 01:16:47;;;;;;;85.00;41.93;;;8.10;99.90;;;;;;5102104;28;20613;-79
2024/03/05 01:19:13;;;;;;;81.20;41.57;;;8.10;99.90;;;;;;5110932;28;20232;-79
2024/03/05 01:21:41;;;;;;;83.83;41.50;;;8.10;99.90;;;;;;5106140;28;20307;-80
2024/03/05 01:24:09;;;;;;;91.63;42.80;;;8.00;99.90;;;;;;5106068;28;20227;-80
2024/03/05 01:26:38;;;;;;;83.03;41.20;;;8.10;99.90;;;;;;5109142;28;20201;-79
2024/03/05 01:29:05;;;;;;;84.30;41.17;;;8.00;99.90;;;;;;5110162;28;20565;-79
2024/03/05 01:31:33;;;;;;;83.30;40.77;;;8.00;99.90;;;;;;5107385;28;20316;-78
2024/03/05 01:34:00;;;;;;;81.23;39.47;;;8.00;99.90;;;;;;5107479;28;20722;-78
2024/03/05 01:36:29;;;;;;;84.67;41.63;;;8.00;99.90;;;;;;5109424;28;20849;-80
2024/03/05 01:38:56;;;;;;;84.07;41.33;;;8.00;99.90;;;;;;5113122;28;20201;-79
2024/03/05 01:41:23;;;;;;;80.40;39.83;;;8.00;99.90;;;;;;5109245;28;20232;-79
2024/03/05 01:43:51;;;;;;;78.77;41.27;;;8.00;99.90;;;;;;5109885;28;20592;-79
2024/03/05 01:46:19;;;;;;;81.20;40.10;;;8.00;99.90;;;;;;5110211;28;20201;-79
2024/03/05 01:48:46;;;;;;;82.60;41.10;;;8.00;99.90;;;;;;5113988;28;20263;-79
2024/03/05 01:51:14;;;;;;;83.00;41.97;;;8.00;99.90;;;;;;5108153;28;20252;-79
2024/03/05 01:53:43;;;;;;;79.80;38.67;;;7.90;99.90;;;;;;5109034;28;20198;-79
2024/03/05 01:56:11;;;;;;;80.50;41.63;;;7.90;99.90;;;;;;5105612;28;20260;-80
2024/03/05 01:58:42;;;;;;;89.27;43.07;;;8.00;99.90;;;;;;5101646;28;20269;-80
2024/03/05 02:01:13;;;;;;;87.73;43.80;;;7.90;99.90;;;;;;5101295;28;20221;-79
2024/03/05 02:03:40;;;;;;;82.40;42.27;;;7.90;99.90;;;;;;5103623;28;20255;-79
2024/03/05 02:06:10;;;;;;;83.30;43.87;;;7.90;99.90;;;;;;5100392;28;20202;-79
2024/03/05 02:08:38;;;;;;;83.40;42.83;;;7.90;99.90;;;;;;5100728;28;20205;-79
2024/03/05 02:11:07;;;;;;;82.97;41.67;;;7.90;99.90;;;;;;5102088;28;20220;-80
2024/03/05 02:13:35;;;;;;;87.57;43.27;;;8.00;99.90;;;;;;5104922;28;20220;-79
2024/03/05 02:16:02;;;;;;;94.20;44.80;;;7.90;99.90;;;;;;5100428;28;20261;-79
2024/03/05 02:18:30;;;;;;;95.43;44.70;;;7.90;99.90;;;;;;5108210;28;20284;-80
2024/03/05 02:21:02;;;;;;;89.87;42.80;;;7.90;99.90;;;;;;5108275;28;20710;-79
2024/03/05 02:23:28;;;;;;;96.80;45.23;;;7.90;99.90;;;;;;5106648;28;20669;-79
2024/03/05 02:25:56;;;;;;;91.20;43.10;;;7.90;99.90;;;;;;5107590;28;20288;-79
2024/03/05 02:28:23;;;;;;;97.27;48.27;;;7.90;99.90;;;;;;5108506;28;20303;-79
2024/03/05 02:30:50;;;;;;;96.63;46.50;;;7.90;99.90;;;;;;5110560;28;20217;-79
2024/03/05 02:33:18;;;;;;;101.87;45.00;;;7.90;99.90;;;;;;5109668;28;20201;-79
2024/03/05 02:35:47;;;;;;;103.43;47.30;;;7.90;99.90;;;;;;5110111;28;20221;-79
2024/03/05 02:38:16;;;;;;;105.90;47.27;;;7.90;99.90;;;;;;5110321;28;20230;-79
2024/03/05 02:40:42;;;;;;;100.13;45.57;;;7.90;99.90;;;;;;5108813;28;20256;-79
2024/03/05 02:43:10;;;;;;;108.70;47.87;;;7.90;99.90;;;;;;5111370;28;20220;-79
2024/03/05 02:45:37;;;;;;;107.30;46.17;;;7.90;99.90;;;;;;5107390;28;20866;-79
2024/03/05 02:48:05;;;;;;;100.30;45.80;;;7.90;99.90;;;;;;5110855;28;20293;-79
2024/03/05 02:50:33;;;;;;;112.07;47.57;;;7.90;99.90;;;;;;5111701;28;20248;-79
2024/03/05 02:53:00;;;;;;;100.47;46.77;;;7.90;99.90;;;;;;5111722;28;20606;-80
2024/03/05 02:55:28;;;;;;;104.47;47.40;;;7.90;99.90;;;;;;5111670;28;20241;-79
2024/03/05 02:57:55;;;;;;;105.87;46.70;;;7.90;99.90;;;;;;5109089;28;20201;-79
2024/03/05 03:00:24;;;;;;;106.30;47.67;;;7.90;99.90;;;;;;5116460;28;20244;-80
2024/03/05 03:02:51;;;;;;;103.47;47.63;;;7.90;99.90;;;;;;5107611;28;20221;-79
2024/03/05 03:05:21;;;;;;;110.77;48.23;;;7.90;99.90;;;;;;5112007;28;20280;-79
2024/03/05 03:07:47;;;;;;;111.57;48.70;;;7.90;99.90;;;;;;5106204;28;20206;-80
2024/03/05 03:10:14;;;;;;;125.80;49.03;;;7.90;99.90;;;;;;5104826;28;20221;-79
2024/03/05 03:12:43;;;;;;;102.53;43.77;;;7.90;99.90;;;;;;5105739;28;20227;-80
2024/03/05 03:15:11;;;;;;;110.03;48.83;;;7.90;99.90;;;;;;5105505;28;20290;-80
2024/03/05 03:17:41;;;;;;;99.33;47.37;;;7.80;99.90;;;;;;5113494;28;20201;-79
2024/03/05 03:20:09;;;;;;;96.10;45.43;;;7.80;99.90;;;;;;5104063;28;20218;-79
2024/03/05 03:22:36;;;;;;;116.70;49.03;;;7.80;99.90;;;;;;5108373;28;20201;-79
2024/03/05 03:25:04;;;;;;;103.37;44.80;;;7.80;99.90;;;;;;5116155;28;20201;-79
2024/03/05 03:27:31;;;;;;;94.97;46.93;;;7.90;99.90;;;;;;5110934;28;20296;-80
2024/03/05 03:29:59;;;;;;;96.77;45.63;;;7.80;99.90;;;;;;5110865;28;20686;-79
2024/03/05 03:32:26;;;;;;;99.03;45.90;;;7.70;99.90;;;;;;5111480;28;20284;-79
2024/03/05 03:34:53;;;;;;;87.70;43.70;;;7.70;99.90;;;;;;5113039;28;20229;-79
2024/03/05 03:37:20;;;;;;;74.90;39.77;;;7.70;99.90;;;;;;5113660;28;20201;-79
2024/03/05 03:39:47;;;;;;;72.40;42.33;;;7.50;99.90;;;;;;5113139;28;20221;-80
2024/03/05 03:42:14;;;;;;;76.33;40.43;;;7.50;99.90;;;;;;5113686;28;20610;-79
2024/03/05 03:44:42;;;;;;;68.40;38.23;;;7.50;99.90;;;;;;5115042;28;20224;-79
2024/03/05 03:47:10;;;;;;;79.33;40.27;;;7.40;99.90;;;;;;5114864;28;20208;-79
2024/03/05 03:49:37;;;;;;;81.87;40.20;;;7.30;99.90;;;;;;5111833;28;20249;-79
2024/03/05 03:52:04;;;;;;;72.77;39.43;;;7.30;99.90;;;;;;5114562;28;20212;-79
2024/03/05 03:54:31;;;;;;;72.67;40.70;;;7.20;99.90;;;;;;5113478;28;20236;-79
2024/03/05 03:56:58;;;;;;;71.87;39.30;;;7.20;99.90;;;;;;5114280;28;20229;-78
2024/03/05 03:59:24;;;;;;;68.43;39.47;;;7.20;99.90;;;;;;5104654;28;20288;-79
2024/03/05 04:01:52;;;;;;;70.73;39.67;;;7.20;99.90;;;;;;5104790;28;20329;-79
2024/03/05 04:04:21;;;;;;;75.40;39.47;;;7.20;99.90;;;;;;5106992;28;20308;-79
2024/03/05 04:06:47;;;;;;;70.80;39.43;;;7.10;99.90;;;;;;5103087;28;20202;-79
2024/03/05 04:09:14;;;;;;;72.83;41.77;;;7.10;99.90;;;;;;5102338;28;20237;-79
2024/03/05 04:11:41;;;;;;;78.37;41.00;;;7.10;99.90;;;;;;5103342;28;20577;-78
2024/03/05 04:14:09;;;;;;;73.97;41.53;;;7.10;99.90;;;;;;5102176;28;20193;-79
2024/03/05 04:16:39;;;;;;;71.17;40.90;;;7.00;99.90;;;;;;5103881;28;20240;-79
2024/03/05 04:19:07;;;;;;;88.27;42.13;;;7.00;99.90;;;;;;5104977;28;20201;-78
2024/03/05 04:21:40;;;;;;;70.87;39.97;;;7.00;99.90;;;;;;5106715;28;20690;-79
2024/03/05 04:24:12;;;;;;;73.57;39.47;;;6.90;99.90;;;;;;5101357;28;20244;-79
2024/03/05 04:26:39;;;;;;;66.50;37.17;;;6.90;99.90;;;;;;5113216;28;20232;-79
2024/03/05 04:29:09;;;;;;;66.87;36.63;;;6.90;99.90;;;;;;5111084;28;20224;-79
2024/03/05 04:31:37;;;;;;;65.00;37.50;;;6.80;99.90;;;;;;5106144;28;20304;-79
2024/03/05 04:34:05;;;;;;;65.93;38.37;;;6.80;99.90;;;;;;5112401;28;20201;-79
2024/03/05 04:36:33;;;;;;;66.50;36.50;;;6.80;99.90;;;;;;5110137;28;20713;-79
2024/03/05 04:39:02;;;;;;;69.10;36.73;;;6.80;99.90;;;;;;5109397;28;20203;-79
2024/03/05 04:41:29;;;;;;;63.17;39.23;;;6.80;99.90;;;;;;5111134;28;20261;-79
2024/03/05 04:43:56;;;;;;;68.77;37.53;;;6.80;99.90;;;;;;5113977;28;20805;-79
2024/03/05 04:46:23;;;;;;;59.17;36.37;;;6.80;99.90;;;;;;5109762;28;20193;-79
2024/03/05 04:48:50;;;;;;;64.17;35.30;;;6.80;99.90;;;;;;5116826;28;20225;-79
2024/03/05 04:51:16;;;;;;;67.53;38.17;;;7.00;99.90;;;;;;5112504;28;20217;-79
2024/03/05 04:53:43;;;;;;;64.00;37.77;;;6.80;99.90;;;;;;5112377;28;20201;-79
2024/03/05 04:56:12;;;;;;;61.40;34.80;;;6.80;99.90;;;;;;5115489;28;20292;-79
2024/03/05 04:58:40;;;;;;;62.20;36.57;;;6.80;99.90;;;;;;5102598;28;20559;-79
2024/03/05 05:01:06;;;;;;;55.97;33.63;;;6.80;99.90;;;;;;5102423;28;20244;-79
2024/03/05 05:03:33;;;;;;;60.70;34.43;;;6.80;99.90;;;;;;5114236;28;20253;-78
2024/03/05 05:06:00;;;;;;;57.23;32.63;;;6.80;99.90;;;;;;5100623;28;20608;-78
2024/03/05 05:08:27;;;;;;;57.43;32.33;;;6.80;99.90;;;;;;5101450;28;20288;-79
2024/03/05 05:10:54;;;;;;;61.80;34.17;;;6.90;99.90;;;;;;5101380;28;20256;-79
2024/03/05 05:13:22;;;;;;;56.27;33.00;;;6.80;99.90;;;;;;5099805;28;20638;-79
2024/03/05 05:15:49;;;;;;;55.03;32.20;;;6.80;99.90;;;;;;5103258;28;20200;-78
2024/03/05 05:18:16;;;;;;;52.43;28.87;;;6.80;99.90;;;;;;5106775;28;20268;-78
2024/03/05 05:20:43;;;;;;;56.13;30.87;;;6.80;99.90;;;;;;5105329;27;20330;-79
2024/03/05 05:23:10;;;;;;;54.07;29.60;;;6.80;99.90;;;;;;5099539;28;20609;-79
2024/03/05 05:25:37;;;;;;;49.80;28.80;;;6.80;99.90;;;;;;5099363;28;20676;-79
2024/03/05 05:28:05;;;;;;;49.47;29.93;;;6.70;99.90;;;;;;5104134;28;20625;-79
2024/03/05 05:30:33;;;;;;;49.43;28.20;;;6.70;99.90;;;;;;5111116;28;20707;-79
2024/03/05 05:33:00;;;;;;;51.37;28.83;;;6.50;99.90;;;;;;5107255;28;20205;-79
2024/03/05 05:35:27;;;;;;;45.73;27.83;;;6.50;99.90;;;;;;5103871;28;20295;-79
2024/03/05 05:37:53;;;;;;;45.30;26.07;;;6.50;99.90;;;;;;5110222;28;20284;-78
2024/03/05 05:40:20;;;;;;;49.47;28.03;;;6.40;99.90;;;;;;5112741;28;20241;-79
2024/03/05 05:42:49;;;;;;;44.23;27.63;;;6.40;99.90;;;;;;5112311;28;20233;-78
2024/03/05 05:45:16;;;;;;;45.63;27.40;;;6.40;99.90;;;;;;5111898;28;20252;-79
2024/03/05 05:47:51;;;;;;;41.93;26.17;;;6.30;99.90;;;;;;5112490;28;20228;-79
2024/03/05 05:50:18;;;;;;;43.57;26.80;;;6.30;99.90;;;;;;5112918;28;20317;-79
2024/03/05 05:52:47;;;;;;;38.07;23.83;;;6.30;99.90;;;;;;5114469;28;20437;-79
2024/03/05 05:55:15;;;;;;;38.00;23.43;;;6.30;99.90;;;;;;5115379;28;20434;-79
2024/03/05 05:57:46;;;;;;;36.97;22.70;;;6.20;99.90;;;;;;5112360;28;20284;-79
2024/03/05 06:00:22;;;;;;;37.90;22.90;;;6.10;99.90;;;;;;5108268;28;20308;-79
2024/03/05 06:02:53;;;;;;;35.80;22.53;;;6.10;99.90;;;;;;5108686;28;20197;-79
2024/03/05 06:05:20;;;;;;;37.27;22.47;;;6.10;99.90;;;;;;5103423;28;20217;-79
2024/03/05 06:07:47;;;;;;;35.73;21.50;;;6.00;99.90;;;;;;5105076;28;20269;-79
2024/03/05 06:10:18;;;;;;;37.43;22.80;;;6.00;99.90;;;;;;5102014;28;20291;-79
2024/03/05 06:12:45;;;;;;;36.10;23.30;;;5.90;99.90;;;;;;5101700;28;20366;-78
2024/03/05 06:15:12;;;;;;;36.57;23.60;;;5.90;99.90;;;;;;5105883;28;20192;-79
2024/03/05 06:17:39;;;;;;;33.97;20.87;;;5.90;99.90;;;;;;5106663;28;20211;-80
2024/03/05 06:20:10;;;;;;;34.87;22.27;;;5.80;99.90;;;;;;5101290;28;20259;-79
2024/03/05 06:22:37;;;;;;;37.30;23.27;;;5.80;99.90;;;;;;5103617;28;20206;-80
2024/03/05 06:25:06;;;;;;;35.70;21.70;;;5.80;99.90;;;;;;5103560;28;20240;-79
2024/03/05 06:27:34;;;;;;;33.27;22.73;;;5.70;99.90;;;;;;5111025;28;20201;-80
2024/03/05 06:30:01;;;;;;;36.93;23.17;;;5.80;99.90;;;;;;5104114;28;20233;-79
2024/03/05 06:32:28;;;;;;;40.23;24.43;;;5.80;99.90;;;;;;5115413;28;20202;-79
2024/03/05 06:34:55;;;;;;;38.20;25.00;;;5.80;99.90;;;;;;5115996;28;20233;-80
2024/03/05 06:37:24;;;;;;;40.70;25.17;;;5.80;99.90;;;;;;5109826;28;20213;-79
2024/03/05 06:39:50;;;;;;;38.17;25.50;;;5.80;99.90;;;;;;5115705;28;20221;-79
2024/03/05 06:42:18;;;;;;;42.70;24.60;;;5.80;99.90;;;;;;5118323;28;20197;-79
2024/03/05 06:44:50;;;;;;;41.90;25.00;;;5.70;99.90;;;;;;5115734;28;20228;-79
2024/03/05 06:47:26;;;;;;;41.53;23.40;;;5.80;99.90;;;;;;5119247;28;20563;-79
2024/03/05 06:49:57;;;;;;;44.20;25.07;;;5.70;99.90;;;;;;5119306;28;20213;-79
2024/03/05 06:58:09;;;;;;;39.90;24.40;;;5.70;99.90;;;;;;5058196;28;20195;-79
2024/03/05 07:00:36;;;;;;;35.83;23.07;;;5.70;99.90;;;;;;5054142;28;20769;-78
2024/03/05 07:03:06;;;;;;;35.97;21.70;;;5.80;99.90;;;;;;5076056;28;20197;-79
2024/03/05 07:05:33;;;;;;;39.23;22.17;;;5.70;99.90;;;;;;5109615;28;20225;-78
2024/03/05 07:08:01;;;;;;;38.90;22.53;;;5.60;99.90;;;;;;5105471;28;20580;-78
2024/03/05 07:10:31;;;;;;;40.50;23.43;;;5.60;99.90;;;;;;5106746;28;20243;-79
2024/03/05 07:12:58;;;;;;;38.47;22.97;;;5.60;99.90;;;;;;5103097;28;20682;-79
2024/03/05 07:15:25;;;;;;;38.97;23.03;;;5.60;99.90;;;;;;5103420;28;20611;-78
2024/03/05 07:17:52;;;;;;;38.43;23.50;;;5.50;99.90;;;;;;5109948;28;20243;-77
2024/03/05 07:20:22;;;;;;;39.60;24.03;;;5.50;99.90;;;;;;5103348;28;20304;-79
2024/03/05 07:22:51;;;;;;;47.17;24.00;;;5.50;99.90;;;;;;5102649;28;20200;-79
2024/03/05 07:25:19;;;;;;;43.73;26.20;;;5.50;99.90;;;;;;5109013;28;20701;-79
2024/03/05 07:27:47;;;;;;;42.40;26.50;;;5.50;99.90;;;;;;5107688;28;20193;-79
2024/03/05 07:30:15;;;;;;;42.13;25.43;;;5.50;99.90;;;;;;5105727;28;20213;-79
2024/03/05 07:32:45;;;;;;;41.83;25.57;;;5.50;99.90;;;;;;5103794;28;20206;-79
2024/03/05 07:35:12;;;;;;;43.30;25.27;;;5.50;99.90;;;;;;5102125;28;20194;-78
2024/03/05 07:37:41;;;;;;;46.33;28.20;;;5.40;99.90;;;;;;5110965;28;20198;-79
2024/03/05 07:40:16;;;;;;;44.90;26.07;;;5.40;99.90;;;;;;5111268;28;20221;-79
2024/03/05 07:42:47;;;;;;;45.40;26.23;;;5.40;99.90;;;;;;5114342;28;20197;-78
2024/03/05 07:45:14;;;;;;;50.13;28.10;;;5.50;99.90;;;;;;5118085;28;20280;-79
2024/03/05 07:47:41;;;;;;;46.90;27.43;;;5.50;99.90;;;;;;5114259;28;20626;-79
2024/03/05 07:50:11;;;;;;;46.00;25.33;;;5.50;99.90;;;;;;5115757;28;20292;-79
2024/03/05 07:52:38;;;;;;;47.33;26.60;;;5.50;99.90;;;;;;5115650;28;20213;-79
2024/03/05 07:55:06;;;;;;;46.53;26.97;;;5.50;99.90;;;;;;5115318;27;20197;-78
2024/03/05 07:57:34;;;;;;;47.93;28.33;;;5.50;99.90;;;;;;5114559;28;20602;-79
2024/03/05 08:00:08;;;;;;;48.20;28.50;;;5.50;99.90;;;;;;5103696;28;20239;-78
2024/03/05 08:02:36;;;;;;;41.43;22.50;;;5.50;99.90;;;;;;5102372;28;20194;-77
2024/03/05 08:05:04;;;;;;;48.13;26.80;;;5.40;99.90;;;;;;5101208;28;20255;-79
2024/03/05 08:07:32;;;;;;;45.07;25.43;;;5.50;99.90;;;;;;5103040;28;20205;-79
2024/03/05 08:10:00;;;;;;;45.80;28.07;;;5.50;99.90;;;;;;5102291;28;20296;-79
2024/03/05 08:12:27;;;;;;;46.63;25.30;;;5.50;99.90;;;;;;5102068;28;20209;-79
2024/03/05 08:14:55;;;;;;;47.03;24.47;;;5.50;99.90;;;;;;5101707;28;20261;-79
2024/03/05 08:17:24;;;;;;;50.93;28.20;;;5.50;99.90;;;;;;5101867;28;20221;-79
2024/03/05 08:19:51;;;;;;;46.23;28.23;;;5.50;99.90;;;;;;5102225;28;20249;-79
2024/03/05 08:22:20;;;;;;;47.37;27.63;;;5.60;99.90;;;;;;5107628;28;20204;-79
2024/03/05 08:24:47;;;;;;;46.20;26.80;;;5.40;99.90;;;;;;5101502;28;20218;-78
2024/03/05 08:27:13;;;;;;;45.33;26.97;;;5.40;99.90;;;;;;5102545;28;20368;-80
2024/03/05 08:29:41;;;;;;;44.40;25.97;;;5.40;99.90;;;;;;5105262;28;20240;-79
2024/03/05 08:32:09;;;;;;;47.50;27.53;;;5.40;99.90;;;;;;5102989;28;20198;-80
2024/03/05 08:34:38;;;;;;;45.57;24.50;;;5.40;99.90;;;;;;5111060;28;20653;-80
2024/03/05 08:37:04;;;;;;;50.47;26.23;;;5.40;99.90;;;;;;5110842;28;20652;-79
2024/03/05 08:39:32;;;;;;;42.63;24.00;;;5.40;99.90;;;;;;5110449;28;20292;-79
2024/03/05 08:42:00;;;;;;;48.40;26.73;;;5.30;99.90;;;;;;5115175;28;20296;-80
2024/03/05 08:44:27;;;;;;;49.73;27.93;;;5.40;99.90;;;;;;5109024;28;20258;-79
2024/03/05 08:46:55;;;;;;;45.13;25.97;;;5.40;99.90;;;;;;5116845;28;20284;-79
2024/03/05 08:49:25;;;;;;;47.60;27.87;;;5.40;99.90;;;;;;5115321;28;20200;-78
2024/03/05 08:51:54;;;;;;;48.47;26.20;;;5.30;99.90;;;;;;5104265;28;20197;-79
2024/03/05 08:54:20;;;;;;;46.77;26.73;;;5.40;99.90;;;;;;5112350;28;20206;-79
2024/03/05 08:56:49;;;;;;;46.00;26.10;;;5.40;99.90;;;;;;5112202;28;20198;-79
2024/03/05 08:59:16;;;;;;;51.10;29.27;;;5.40;99.90;;;;;;5108038;28;20229;-80
2024/03/05 09:01:42;;;;;;;48.83;26.03;;;5.40;99.90;;;;;;5111744;28;20225;-79
2024/03/05 09:04:09;;;;;;;44.80;25.80;;;5.40;99.90;;;;;;5100800;28;20209;-79
2024/03/05 09:06:37;;;;;;;45.83;25.00;;;6.00;99.90;;;;;;5101847;28;20206;-79
2024/03/05 09:09:06;;;;;;;48.60;24.87;;;5.40;99.90;;;;;;5104427;28;20193;-79
2024/03/05 09:11:34;;;;;;;45.60;26.67;;;5.40;99.90;;;;;;5111737;28;20590;-79
2024/03/05 09:14:02;;;;;;;47.27;25.53;;;5.40;99.90;;;;;;5101395;28;20262;-79
2024/03/05 09:16:30;;;;;;;45.90;26.93;;;5.40;99.90;;;;;;5103526;28;20264;-80
2024/03/05 09:18:57;;;;;;;48.53;28.03;;;5.90;99.90;;;;;;5108701;28;20549;-80
2024/03/05 09:21:24;;;;;;;48.70;26.97;;;5.40;99.90;;;;;;5109345;28;20217;-80
2024/03/05 09:23:51;;;;;;;48.13;27.47;;;5.40;99.90;;;;;;5103696;28;20297;-79
2024/03/05 09:26:19;;;;;;;45.50;25.37;;;5.40;99.90;;;;;;5109421;28;20311;-80
2024/03/05 09:28:46;;;;;;;42.83;26.03;;;5.40;99.90;;;;;;5114043;28;20240;-78
2024/03/05 09:31:13;;;;;;;51.83;28.40;;;6.20;99.90;;;;;;5111380;28;20659;-78
2024/03/05 09:33:40;;;;;;;48.40;27.70;;;5.40;99.90;;;;;;5114615;28;20673;-80
2024/03/05 09:36:09;;;;;;;50.90;28.03;;;5.50;99.90;;;;;;5117847;28;20248;-79
2024/03/05 09:38:36;;;;;;;45.60;28.80;;;5.50;99.90;;;;;;5115972;28;20223;-79
2024/03/05 09:41:05;;;;;;;50.50;29.73;;;5.50;99.90;;;;;;5115721;28;20298;-79
2024/03/05 09:43:34;;;;;;;47.67;28.33;;;5.50;99.90;;;;;;5113967;28;20205;-81
2024/03/05 09:46:04;;;;;;;45.53;27.93;;;5.60;99.90;;;;;;5109019;28;20243;-81
2024/03/05 09:48:32;;;;;;;47.60;26.73;;;5.60;99.90;;;;;;5114777;28;20204;-82
2024/03/05 09:50:59;;;;;;;47.03;25.43;;;5.60;99.90;;;;;;5101751;28;20224;-81
2024/03/05 09:53:26;;;;;;;50.10;28.97;;;5.60;99.90;;;;;;5115060;28;20606;-82
2024/03/05 09:55:54;;;;;;;53.03;28.77;;;5.70;99.90;;;;;;5110866;28;20665;-82
2024/03/05 09:58:35;;;;;;;50.90;27.40;;;5.60;99.90;;;;;;5117218;28;20220;-81
2024/03/05 10:01:05;;;;;;;50.80;27.93;;;5.70;99.90;;;;;;5100692;28;20224;-80
2024/03/05 10:03:34;;;;;;;45.70;28.27;;;5.70;99.90;;;;;;5110024;28;20193;-80
2024/03/05 10:06:01;;;;;;;50.93;28.27;;;5.70;99.90;;;;;;5105447;28;20217;-80
2024/03/05 10:08:28;;;;;;;51.17;31.13;;;5.70;99.90;;;;;;5107173;28;20201;-81
2024/03/05 10:11:00;;;;;;;45.80;22.23;;;5.70;99.90;;;;;;5100229;28;20221;-81
2024/03/05 10:13:31;;;;;;;51.33;31.17;;;5.70;99.90;;;;;;5095621;28;20212;-81
2024/03/05 10:16:14;;;;;;;51.97;28.50;;;5.70;99.90;;;;;;5111871;28;20193;-81
2024/03/05 10:18:41;;;;;;;49.93;28.53;;;5.80;99.90;;;;;;5104891;28;20203;-82
2024/03/05 10:21:19;;;;;;;50.00;25.67;;;5.80;99.90;;;;;;5116362;28;20231;-81
2024/03/05 10:23:47;;;;;;;50.57;27.40;;;5.80;99.90;;;;;;5115393;28;20193;-81
2024/03/05 10:26:21;;;;;;;46.83;25.83;;;5.80;99.90;;;;;;5104802;28;20222;-81
2024/03/05 10:28:50;;;;;;;52.57;29.23;;;5.80;99.90;;;;;;5107952;28;20211;-82
2024/03/05 10:31:23;;;;;;;45.30;24.63;;;5.80;99.90;;;;;;5116436;28;20234;-80
2024/03/05 10:33:53;;;;;;;47.03;26.67;;;5.90;99.90;;;;;;5095794;28;20258;-82
2024/03/05 10:36:31;;;;;;;56.97;28.53;;;5.80;99.90;;;;;;5095536;28;20288;-81
2024/03/05 10:38:58;;;;;;;48.23;26.73;;;5.80;99.90;;;;;;5109431;28;20662;-81
2024/03/05 10:41:29;;;;;;;49.70;26.50;;;5.80;99.90;;;;;;5116626;28;20312;-81
2024/03/05 10:44:00;;;;;;;55.80;28.67;;;5.80;99.90;;;;;;5104015;28;20225;-81
2024/03/05 10:46:29;;;;;;;50.87;26.13;;;5.90;99.90;;;;;;5111570;28;20679;-81
2024/03/05 10:48:57;;;;;;;61.17;32.37;;;5.90;99.90;;;;;;5116215;28;20208;-81
2024/03/05 10:51:28;;;;;;;61.80;32.03;;;5.90;99.90;;;;;;5104173;28;20281;-82
2024/03/05 10:53:59;;;;;;;59.10;29.87;;;6.00;99.90;;;;;;5107422;28;20227;-81
2024/03/05 10:56:26;;;;;;;65.00;31.17;;;5.90;99.90;;;;;;5109913;28;20245;-81
2024/03/05 11:01:39;;;;;;;53.70;28.13;;;6.00;99.90;;;;;;5108270;28;20224;-81
2024/03/05 11:04:13;;;;;;;55.87;30.83;;;5.90;99.90;;;;;;5105661;28;20237;-82
2024/03/05 11:06:41;;;;;;;53.97;30.83;;;6.00;99.90;;;;;;5110760;28;20311;-81
2024/03/05 11:09:10;;;;;;;48.13;26.83;;;6.00;99.90;;;;;;5108316;28;20208;-81
2024/03/05 11:11:43;;;;;;;50.10;25.80;;;6.00;99.90;;;;;;5112435;28;20225;-82
2024/03/05 11:14:11;;;;;;;46.40;22.67;;;5.90;99.90;;;;;;5119258;28;20225;-81
2024/03/05 11:16:40;;;;;;;52.37;27.80;;;5.80;99.90;;;;;;5107059;27;20201;-81
2024/03/05 11:19:09;;;;;;;50.13;30.23;;;5.80;99.90;;;;;;5119661;28;20220;-82
2024/03/05 11:21:38;;;;;;;53.53;29.10;;;5.80;99.90;;;;;;5111889;27;20292;-82
2024/03/05 11:24:06;;;;;;;44.13;23.77;;;5.80;99.90;;;;;;5112089;28;20619;-81
2024/03/05 11:26:34;;;;;;;50.97;27.47;;;5.80;99.90;;;;;;5117309;27;20221;-81
2024/03/05 11:29:06;;;;;;;53.53;27.13;;;5.80;99.90;;;;;;5112241;28;20189;-81
2024/03/05 11:31:34;;;;;;;55.90;29.47;;;5.70;99.90;;;;;;5106856;28;20577;-81
2024/03/05 11:34:12;;;;;;;50.40;26.70;;;5.70;99.90;;;;;;5104107;27;20674;-80
2024/03/05 11:36:39;;;;;;;48.90;26.43;;;5.70;99.90;;;;;;5106235;28;20537;-80
2024/03/05 11:39:08;;;;;;;49.30;26.30;;;5.60;99.90;;;;;;5111923;28;20739;-80
2024/03/05 11:41:36;;;;;;;47.87;24.73;;;5.60;99.90;;;;;;5115037;28;20221;-80
2024/03/05 11:44:03;;;;;;;46.90;26.10;;;5.70;99.90;;;;;;5099554;28;20261;-80
2024/03/05 11:46:44;;;;;;;44.13;24.37;;;5.60;99.90;;;;;;5115673;28;20247;-80
2024/03/05 11:49:13;;;;;;;41.30;22.73;;;5.60;99.90;;;;;;5104563;28;20235;-80
2024/03/05 11:51:41;;;;;;;52.53;26.13;;;5.60;99.90;;;;;;5101559;28;20264;-81
2024/03/05 11:54:09;;;;;;;41.60;22.27;;;5.60;99.90;;;;;;5107837;28;20694;-80
2024/03/05 11:56:36;;;;;;;44.60;24.87;;;5.60;99.90;;;;;;5116812;28;20699;-80
2024/03/05 11:59:05;;;;;;;45.17;24.43;;;5.50;99.90;;;;;;5099312;28;20284;-81
2024/03/05 12:01:33;;;;;;;44.80;23.00;;;5.60;99.90;;;;;;5114811;28;20228;-77
2024/03/05 12:04:03;;;;;;;48.07;24.73;;;5.60;99.90;;;;;;5098778;28;20288;-78
2024/03/05 12:06:32;;;;;;;41.80;22.30;;;5.60;99.90;;;;;;5105636;28;20344;-79
2024/03/05 12:09:18;;;;;;;49.13;24.60;;;5.60;99.90;;;;;;5105106;28;20273;-79
2024/03/05 12:11:57;;;;;;;41.43;22.23;;;5.60;99.90;;;;;;5113565;28;20194;-77
2024/03/05 12:14:24;;;;;;;43.53;24.57;;;5.60;99.90;;;;;;5102694;28;20325;-80
2024/03/05 12:16:51;;;;;;;46.23;25.40;;;5.60;99.90;;;;;;5107711;28;20198;-80
2024/03/05 12:19:18;;;;;;;45.47;24.97;;;5.60;99.90;;;;;;5109764;28;20281;-80
2024/03/05 12:21:46;;;;;;;49.27;23.43;;;5.60;99.90;;;;;;5104229;28;20205;-79
2024/03/05 12:24:13;;;;;;;49.03;25.67;;;5.70;99.90;;;;;;5105758;28;20596;-80
2024/03/05 12:26:40;;;;;;;42.40;24.43;;;5.70;99.90;;;;;;5108249;28;20603;-79
2024/03/05 12:29:08;;;;;;;44.37;23.43;;;5.70;99.90;;;;;;5112642;28;20202;-79
2024/03/05 12:31:36;;;;;;;40.90;22.80;;;5.70;99.90;;;;;;5105130;28;20225;-78
2024/03/05 12:34:03;;;;;;;41.43;22.80;;;5.80;99.90;;;;;;5112320;28;20666;-80
2024/03/05 12:36:30;;;;;;;43.33;23.97;;;5.70;99.90;;;;;;5097072;28;20240;-80
2024/03/05 12:38:59;;;;;;;39.17;22.73;;;5.70;99.90;;;;;;5098245;28;20325;-76
2024/03/05 12:41:26;;;;;;;38.33;21.10;;;5.70;99.90;;;;;;5096274;28;20228;-78
2024/03/05 12:43:55;;;;;;;39.73;21.43;;;5.80;99.90;;;;;;5104745;28;20276;-79
2024/03/05 12:46:22;;;;;;;46.17;23.67;;;5.70;99.90;;;;;;5099149;28;20221;-80
2024/03/05 12:48:49;;;;;;;39.23;20.67;;;5.70;99.90;;;;;;5113396;28;20212;-80